sensor_id;sensor_type;location;lat;lon;timestamp;P1;durP1;ratioP1;P2;durP2;ratioP2
24799;SDS011;12897;50.812;4.430;2024-02-28T00:00:59;17.62;;;6.78;;
24799;SDS011;12897;50.812;4.430;2024-02-28T00:03:27;18.57;;;6.90;;
24799;SDS011;12897;50.812;4.430;2024-02-28T00:05:54;19.15;;;8.45;;
24799;SDS011;12897;50.812;4.430;2024-02-28T00:08:22;17.77;;;7.37;;
24799;SDS011;12897;50.812;4.430;2024-02-28T00:10:49;19.00;;;7.58;;
24799;SDS011;12897;50.812;4.430;2024-02-28T00:13:17;17.60;;;7.62;;
24799;SDS011;12897;50.812;4.430;2024-02-28T00:15:46;20.75;;;7.85;;
24799;SDS011;12897;50.812;4.430;2024-02-28T00:18:13;23.67;;;8.03;;
24799;SDS011;12897;50.812;4.430;2024-02-28T00:20:41;23.10;;;8.70;;
24799;SDS011;12897;50.812;4.430;2024-02-28T00:23:10;14.98;;;7.08;;
24799;SDS011;12897;50.812;4.430;2024-02-28T00:25:37;18.40;;;7.70;;
24799;SDS011;12897;50.812;4.430;2024-02-28T00:28:05;19.40;;;8.10;;
24799;SDS011;12897;50.812;4.430;2024-02-28T00:30:32;17.00;;;7.50;;
24799;SDS011;12897;50.812;4.430;2024-02-28T00:33:01;24.15;;;8.65;;
24799;SDS011;12897;50.812;4.430;2024-02-28T00:35:32;19.17;;;8.53;;
24799;SDS011;12897;50.812;4.430;2024-02-28T00:38:01;21.52;;;9.05;;
24799;SDS011;12897;50.812;4.430;2024-02-28T00:40:28;21.30;;;9.40;;
24799;SDS011;12897;50.812;4.430;2024-02-28T00:42:57;19.17;;;7.40;;
24799;SDS011;12897;50.812;4.430;2024-02-28T00:45:24;18.48;;;8.78;;
24799;SDS011;12897;50.812;4.430;2024-02-28T00:47:52;15.23;;;7.70;;
24799;SDS011;12897;50.812;4.430;2024-02-28T00:50:20;24.02;;;8.25;;
24799;SDS011;12897;50.812;4.430;2024-02-28T00:52:48;26.25;;;9.05;;
24799;SDS011;12897;50.812;4.430;2024-02-28T00:55:15;23.07;;;8.70;;
24799;SDS011;12897;50.812;4.430;2024-02-28T00:57:44;22.07;;;9.55;;
24799;SDS011;12897;50.812;4.430;2024-02-28T01:00:12;23.98;;;9.80;;
24799;SDS011;12897;50.812;4.430;2024-02-28T01:02:39;23.77;;;9.93;;
24799;SDS011;12897;50.812;4.430;2024-02-28T01:05:10;19.98;;;8.55;;
24799;SDS011;12897;50.812;4.430;2024-02-28T01:07:37;25.23;;;9.70;;
24799;SDS011;12897;50.812;4.430;2024-02-28T01:10:06;27.80;;;9.18;;
24799;SDS011;12897;50.812;4.430;2024-02-28T01:12:34;25.40;;;10.18;;
24799;SDS011;12897;50.812;4.430;2024-02-28T01:15:01;27.82;;;10.10;;
24799;SDS011;12897;50.812;4.430;2024-02-28T01:17:29;20.35;;;9.03;;
24799;SDS011;12897;50.812;4.430;2024-02-28T01:19:57;22.73;;;10.25;;
24799;SDS011;12897;50.812;4.430;2024-02-28T01:22:24;25.17;;;8.70;;
24799;SDS011;12897;50.812;4.430;2024-02-28T01:24:53;21.48;;;8.73;;
24799;SDS011;12897;50.812;4.430;2024-02-28T01:27:20;22.45;;;9.20;;
24799;SDS011;12897;50.812;4.430;2024-02-28T01:29:48;21.80;;;8.13;;
24799;SDS011;12897;50.812;4.430;2024-02-28T01:32:15;24.37;;;7.97;;
24799;SDS011;12897;50.812;4.430;2024-02-28T01:34:43;21.82;;;9.35;;
24799;SDS011;12897;50.812;4.430;2024-02-28T01:37:11;22.35;;;8.23;;
24799;SDS011;12897;50.812;4.430;2024-02-28T01:39:39;20.97;;;8.70;;
24799;SDS011;12897;50.812;4.430;2024-02-28T01:42:06;19.32;;;7.95;;
24799;SDS011;12897;50.812;4.430;2024-02-28T01:44:36;16.97;;;8.08;;
24799;SDS011;12897;50.812;4.430;2024-02-28T01:47:05;23.57;;;8.70;;
24799;SDS011;12897;50.812;4.430;2024-02-28T01:49:33;16.02;;;7.60;;
24799;SDS011;12897;50.812;4.430;2024-02-28T01:52:01;18.82;;;7.17;;
24799;SDS011;12897;50.812;4.430;2024-02-28T01:54:29;16.30;;;7.78;;
24799;SDS011;12897;50.812;4.430;2024-02-28T01:56:58;21.85;;;9.10;;
24799;SDS011;12897;50.812;4.430;2024-02-28T01:59:25;19.75;;;8.68;;
24799;SDS011;12897;50.812;4.430;2024-02-28T02:01:54;23.75;;;9.05;;
24799;SDS011;12897;50.812;4.430;2024-02-28T02:04:22;21.87;;;9.65;;
24799;SDS011;12897;50.812;4.430;2024-02-28T02:06:49;21.35;;;8.80;;
24799;SDS011;12897;50.812;4.430;2024-02-28T02:09:19;17.23;;;7.50;;
24799;SDS011;12897;50.812;4.430;2024-02-28T02:11:46;22.42;;;8.55;;
24799;SDS011;12897;50.812;4.430;2024-02-28T02:14:14;19.27;;;7.65;;
24799;SDS011;12897;50.812;4.430;2024-02-28T02:16:41;23.60;;;9.40;;
24799;SDS011;12897;50.812;4.430;2024-02-28T02:19:09;18.25;;;8.38;;
24799;SDS011;12897;50.812;4.430;2024-02-28T02:21:37;21.68;;;9.48;;
24799;SDS011;12897;50.812;4.430;2024-02-28T02:24:10;21.23;;;8.73;;
24799;SDS011;12897;50.812;4.430;2024-02-28T02:26:38;20.88;;;9.30;;
24799;SDS011;12897;50.812;4.430;2024-02-28T02:29:05;22.52;;;9.15;;
24799;SDS011;12897;50.812;4.430;2024-02-28T02:31:34;16.48;;;8.18;;
24799;SDS011;12897;50.812;4.430;2024-02-28T02:34:02;23.15;;;8.75;;
24799;SDS011;12897;50.812;4.430;2024-02-28T02:36:29;20.72;;;8.88;;
24799;SDS011;12897;50.812;4.430;2024-02-28T02:38:57;21.48;;;9.83;;
24799;SDS011;12897;50.812;4.430;2024-02-28T02:41:24;21.17;;;9.60;;
24799;SDS011;12897;50.812;4.430;2024-02-28T02:43:52;18.45;;;7.80;;
24799;SDS011;12897;50.812;4.430;2024-02-28T02:46:19;17.45;;;7.70;;
24799;SDS011;12897;50.812;4.430;2024-02-28T02:51:34;22.45;;;7.60;;
24799;SDS011;12897;50.812;4.430;2024-02-28T02:54:01;15.13;;;6.72;;
24799;SDS011;12897;50.812;4.430;2024-02-28T02:56:29;17.35;;;7.85;;
24799;SDS011;12897;50.812;4.430;2024-02-28T02:58:56;17.60;;;8.03;;
24799;SDS011;12897;50.812;4.430;2024-02-28T03:01:24;19.42;;;8.10;;
24799;SDS011;12897;50.812;4.430;2024-02-28T03:03:51;18.40;;;7.78;;
24799;SDS011;12897;50.812;4.430;2024-02-28T03:06:19;18.05;;;7.92;;
24799;SDS011;12897;50.812;4.430;2024-02-28T03:08:48;20.35;;;7.70;;
24799;SDS011;12897;50.812;4.430;2024-02-28T03:11:16;19.75;;;8.23;;
24799;SDS011;12897;50.812;4.430;2024-02-28T03:13:43;21.12;;;7.87;;
24799;SDS011;12897;50.812;4.430;2024-02-28T03:16:11;16.30;;;7.37;;
24799;SDS011;12897;50.812;4.430;2024-02-28T03:18:38;15.00;;;7.35;;
24799;SDS011;12897;50.812;4.430;2024-02-28T03:21:06;18.02;;;8.23;;
24799;SDS011;12897;50.812;4.430;2024-02-28T03:23:34;20.52;;;7.17;;
24799;SDS011;12897;50.812;4.430;2024-02-28T03:26:02;16.67;;;7.20;;
24799;SDS011;12897;50.812;4.430;2024-02-28T03:28:29;18.80;;;7.97;;
24799;SDS011;12897;50.812;4.430;2024-02-28T03:30:57;17.23;;;7.47;;
24799;SDS011;12897;50.812;4.430;2024-02-28T03:33:24;16.52;;;8.00;;
24799;SDS011;12897;50.812;4.430;2024-02-28T03:35:52;19.32;;;7.62;;
24799;SDS011;12897;50.812;4.430;2024-02-28T03:38:19;17.50;;;7.60;;
24799;SDS011;12897;50.812;4.430;2024-02-28T03:40:47;20.10;;;7.25;;
24799;SDS011;12897;50.812;4.430;2024-02-28T03:43:14;15.18;;;7.67;;
24799;SDS011;12897;50.812;4.430;2024-02-28T03:45:42;16.87;;;7.40;;
24799;SDS011;12897;50.812;4.430;2024-02-28T03:50:56;17.50;;;7.33;;
24799;SDS011;12897;50.812;4.430;2024-02-28T03:53:24;18.50;;;7.97;;
24799;SDS011;12897;50.812;4.430;2024-02-28T03:55:52;17.57;;;7.75;;
24799;SDS011;12897;50.812;4.430;2024-02-28T03:58:19;18.98;;;7.70;;
24799;SDS011;12897;50.812;4.430;2024-02-28T04:00:47;18.55;;;6.95;;
24799;SDS011;12897;50.812;4.430;2024-02-28T04:03:14;21.70;;;7.75;;
24799;SDS011;12897;50.812;4.430;2024-02-28T04:05:42;16.12;;;7.53;;
24799;SDS011;12897;50.812;4.430;2024-02-28T04:08:10;18.60;;;8.28;;
24799;SDS011;12897;50.812;4.430;2024-02-28T04:10:37;15.93;;;6.87;;
24799;SDS011;12897;50.812;4.430;2024-02-28T04:13:05;18.00;;;7.62;;
24799;SDS011;12897;50.812;4.430;2024-02-28T04:15:32;17.95;;;7.42;;
24799;SDS011;12897;50.812;4.430;2024-02-28T04:18:00;20.43;;;8.90;;
24799;SDS011;12897;50.812;4.430;2024-02-28T04:20:27;21.93;;;8.45;;
24799;SDS011;12897;50.812;4.430;2024-02-28T04:22:55;19.12;;;7.78;;
24799;SDS011;12897;50.812;4.430;2024-02-28T04:25:22;17.37;;;7.90;;
24799;SDS011;12897;50.812;4.430;2024-02-28T04:27:50;18.27;;;7.58;;
24799;SDS011;12897;50.812;4.430;2024-02-28T04:30:17;20.95;;;8.75;;
24799;SDS011;12897;50.812;4.430;2024-02-28T04:32:45;22.52;;;8.78;;
24799;SDS011;12897;50.812;4.430;2024-02-28T04:35:12;25.32;;;8.90;;
24799;SDS011;12897;50.812;4.430;2024-02-28T04:37:42;25.25;;;8.80;;
24799;SDS011;12897;50.812;4.430;2024-02-28T04:40:10;21.35;;;9.43;;
24799;SDS011;12897;50.812;4.430;2024-02-28T04:42:38;18.57;;;8.08;;
24799;SDS011;12897;50.812;4.430;2024-02-28T04:45:06;14.55;;;7.62;;
24799;SDS011;12897;50.812;4.430;2024-02-28T04:47:34;18.82;;;9.13;;
24799;SDS011;12897;50.812;4.430;2024-02-28T04:50:02;19.90;;;8.78;;
24799;SDS011;12897;50.812;4.430;2024-02-28T04:52:33;15.50;;;7.40;;
24799;SDS011;12897;50.812;4.430;2024-02-28T04:55:01;21.05;;;7.85;;
24799;SDS011;12897;50.812;4.430;2024-02-28T04:57:29;18.27;;;8.55;;
24799;SDS011;12897;50.812;4.430;2024-02-28T04:59:57;19.67;;;8.93;;
24799;SDS011;12897;50.812;4.430;2024-02-28T05:02:24;20.10;;;8.70;;
24799;SDS011;12897;50.812;4.430;2024-02-28T05:04:52;19.27;;;8.70;;
24799;SDS011;12897;50.812;4.430;2024-02-28T05:07:19;19.57;;;8.20;;
24799;SDS011;12897;50.812;4.430;2024-02-28T05:09:48;13.70;;;7.15;;
24799;SDS011;12897;50.812;4.430;2024-02-28T05:12:15;18.40;;;7.83;;
24799;SDS011;12897;50.812;4.430;2024-02-28T05:14:43;20.50;;;8.45;;
24799;SDS011;12897;50.812;4.430;2024-02-28T05:22:18;17.35;;;7.65;;
24799;SDS011;12897;50.812;4.430;2024-02-28T05:24:45;22.17;;;8.75;;
24799;SDS011;12897;50.812;4.430;2024-02-28T05:27:13;23.57;;;8.43;;
24799;SDS011;12897;50.812;4.430;2024-02-28T05:29:41;21.42;;;7.67;;
24799;SDS011;12897;50.812;4.430;2024-02-28T05:32:08;17.52;;;8.00;;
24799;SDS011;12897;50.812;4.430;2024-02-28T05:34:37;22.42;;;8.48;;
24799;SDS011;12897;50.812;4.430;2024-02-28T05:37:04;18.42;;;8.15;;
24799;SDS011;12897;50.812;4.430;2024-02-28T05:39:32;16.87;;;8.60;;
24799;SDS011;12897;50.812;4.430;2024-02-28T05:42:00;22.10;;;9.08;;
24799;SDS011;12897;50.812;4.430;2024-02-28T05:44:27;18.12;;;8.20;;
24799;SDS011;12897;50.812;4.430;2024-02-28T05:46:55;19.10;;;8.53;;
24799;SDS011;12897;50.812;4.430;2024-02-28T05:49:23;23.98;;;8.63;;
24799;SDS011;12897;50.812;4.430;2024-02-28T05:51:50;23.65;;;8.30;;
24799;SDS011;12897;50.812;4.430;2024-02-28T05:54:19;20.68;;;9.40;;
24799;SDS011;12897;50.812;4.430;2024-02-28T05:56:48;20.88;;;9.33;;
24799;SDS011;12897;50.812;4.430;2024-02-28T05:59:16;18.07;;;8.93;;
24799;SDS011;12897;50.812;4.430;2024-02-28T06:01:43;20.08;;;8.48;;
24799;SDS011;12897;50.812;4.430;2024-02-28T06:04:11;19.77;;;8.90;;
24799;SDS011;12897;50.812;4.430;2024-02-28T06:06:38;21.57;;;8.58;;
24799;SDS011;12897;50.812;4.430;2024-02-28T06:09:06;21.37;;;9.15;;
24799;SDS011;12897;50.812;4.430;2024-02-28T06:11:33;19.55;;;9.10;;
24799;SDS011;12897;50.812;4.430;2024-02-28T06:14:01;18.55;;;8.40;;
24799;SDS011;12897;50.812;4.430;2024-02-28T06:16:30;25.35;;;8.85;;
24799;SDS011;12897;50.812;4.430;2024-02-28T06:18:58;20.48;;;9.15;;
24799;SDS011;12897;50.812;4.430;2024-02-28T06:21:25;22.48;;;9.53;;
24799;SDS011;12897;50.812;4.430;2024-02-28T06:23:53;23.30;;;8.23;;
24799;SDS011;12897;50.812;4.430;2024-02-28T06:26:21;18.55;;;8.25;;
24799;SDS011;12897;50.812;4.430;2024-02-28T06:28:49;19.10;;;9.15;;
24799;SDS011;12897;50.812;4.430;2024-02-28T06:31:17;24.05;;;10.95;;
24799;SDS011;12897;50.812;4.430;2024-02-28T06:33:45;20.15;;;9.88;;
24799;SDS011;12897;50.812;4.430;2024-02-28T06:36:13;22.77;;;9.25;;
24799;SDS011;12897;50.812;4.430;2024-02-28T06:38:40;24.23;;;9.85;;
24799;SDS011;12897;50.812;4.430;2024-02-28T06:41:08;21.10;;;8.70;;
24799;SDS011;12897;50.812;4.430;2024-02-28T06:43:36;20.90;;;9.33;;
24799;SDS011;12897;50.812;4.430;2024-02-28T06:46:04;21.07;;;8.60;;
24799;SDS011;12897;50.812;4.430;2024-02-28T06:48:31;23.15;;;9.90;;
24799;SDS011;12897;50.812;4.430;2024-02-28T06:50:59;21.42;;;9.53;;
24799;SDS011;12897;50.812;4.430;2024-02-28T06:53:26;23.25;;;8.68;;
24799;SDS011;12897;50.812;4.430;2024-02-28T06:55:54;26.75;;;10.10;;
24799;SDS011;12897;50.812;4.430;2024-02-28T06:58:21;26.45;;;10.85;;
24799;SDS011;12897;50.812;4.430;2024-02-28T07:00:51;30.40;;;10.10;;
24799;SDS011;12897;50.812;4.430;2024-02-28T07:03:18;22.48;;;9.95;;
24799;SDS011;12897;50.812;4.430;2024-02-28T07:05:46;28.25;;;10.90;;
24799;SDS011;12897;50.812;4.430;2024-02-28T07:08:13;26.23;;;10.60;;
24799;SDS011;12897;50.812;4.430;2024-02-28T07:10:42;24.35;;;9.73;;
24799;SDS011;12897;50.812;4.430;2024-02-28T07:13:11;29.50;;;10.90;;
24799;SDS011;12897;50.812;4.430;2024-02-28T07:15:38;28.75;;;9.58;;
24799;SDS011;12897;50.812;4.430;2024-02-28T07:18:07;31.93;;;9.90;;
24799;SDS011;12897;50.812;4.430;2024-02-28T07:20:35;29.48;;;10.40;;
24799;SDS011;12897;50.812;4.430;2024-02-28T07:23:04;27.73;;;9.87;;
24799;SDS011;12897;50.812;4.430;2024-02-28T07:25:31;19.10;;;8.93;;
24799;SDS011;12897;50.812;4.430;2024-02-28T07:27:59;20.62;;;9.00;;
24799;SDS011;12897;50.812;4.430;2024-02-28T07:30:27;24.32;;;10.50;;
24799;SDS011;12897;50.812;4.430;2024-02-28T07:32:54;27.05;;;10.82;;
24799;SDS011;12897;50.812;4.430;2024-02-28T07:35:22;23.62;;;9.45;;
24799;SDS011;12897;50.812;4.430;2024-02-28T07:37:50;35.63;;;10.25;;
24799;SDS011;12897;50.812;4.430;2024-02-28T07:40:17;28.87;;;10.32;;
24799;SDS011;12897;50.812;4.430;2024-02-28T07:42:45;31.35;;;9.58;;
24799;SDS011;12897;50.812;4.430;2024-02-28T07:45:12;27.20;;;11.48;;
24799;SDS011;12897;50.812;4.430;2024-02-28T07:47:40;24.50;;;10.82;;
24799;SDS011;12897;50.812;4.430;2024-02-28T07:50:08;27.85;;;10.98;;
24799;SDS011;12897;50.812;4.430;2024-02-28T07:52:35;28.73;;;11.83;;
24799;SDS011;12897;50.812;4.430;2024-02-28T07:55:05;34.67;;;11.83;;
24799;SDS011;12897;50.812;4.430;2024-02-28T07:57:32;35.33;;;11.60;;
24799;SDS011;12897;50.812;4.430;2024-02-28T08:00:00;32.98;;;11.43;;
24799;SDS011;12897;50.812;4.430;2024-02-28T08:02:28;34.13;;;12.23;;
24799;SDS011;12897;50.812;4.430;2024-02-28T08:04:57;38.90;;;12.35;;
24799;SDS011;12897;50.812;4.430;2024-02-28T08:07:26;38.70;;;12.43;;
24799;SDS011;12897;50.812;4.430;2024-02-28T08:09:54;31.97;;;11.33;;
24799;SDS011;12897;50.812;4.430;2024-02-28T08:12:21;35.30;;;12.23;;
24799;SDS011;12897;50.812;4.430;2024-02-28T08:14:49;32.98;;;11.95;;
24799;SDS011;12897;50.812;4.430;2024-02-28T08:17:16;33.30;;;11.60;;
24799;SDS011;12897;50.812;4.430;2024-02-28T08:19:44;38.98;;;12.98;;
24799;SDS011;12897;50.812;4.430;2024-02-28T08:22:11;39.00;;;11.18;;
24799;SDS011;12897;50.812;4.430;2024-02-28T08:24:39;33.48;;;10.28;;
24799;SDS011;12897;50.812;4.430;2024-02-28T08:27:07;29.32;;;11.00;;
24799;SDS011;12897;50.812;4.430;2024-02-28T08:29:35;29.57;;;10.32;;
24799;SDS011;12897;50.812;4.430;2024-02-28T08:32:06;25.32;;;10.08;;
24799;SDS011;12897;50.812;4.430;2024-02-28T08:34:34;32.48;;;10.08;;
24799;SDS011;12897;50.812;4.430;2024-02-28T08:37:01;31.30;;;10.90;;
24799;SDS011;12897;50.812;4.430;2024-02-28T08:39:29;23.30;;;9.00;;
24799;SDS011;12897;50.812;4.430;2024-02-28T08:41:56;24.27;;;10.40;;
24799;SDS011;12897;50.812;4.430;2024-02-28T08:44:26;33.07;;;10.10;;
24799;SDS011;12897;50.812;4.430;2024-02-28T08:46:53;22.17;;;9.05;;
24799;SDS011;12897;50.812;4.430;2024-02-28T08:49:21;23.20;;;10.18;;
24799;SDS011;12897;50.812;4.430;2024-02-28T08:51:49;24.82;;;9.93;;
24799;SDS011;12897;50.812;4.430;2024-02-28T08:54:17;23.87;;;9.05;;
24799;SDS011;12897;50.812;4.430;2024-02-28T08:56:44;22.67;;;8.28;;
24799;SDS011;12897;50.812;4.430;2024-02-28T08:59:12;23.50;;;9.43;;
24799;SDS011;12897;50.812;4.430;2024-02-28T09:01:40;25.00;;;9.00;;
24799;SDS011;12897;50.812;4.430;2024-02-28T09:04:07;31.50;;;10.85;;
24799;SDS011;12897;50.812;4.430;2024-02-28T09:06:36;28.50;;;10.60;;
24799;SDS011;12897;50.812;4.430;2024-02-28T09:09:04;32.33;;;10.50;;
24799;SDS011;12897;50.812;4.430;2024-02-28T09:11:32;30.17;;;10.18;;
24799;SDS011;12897;50.812;4.430;2024-02-28T09:13:59;38.90;;;12.35;;
24799;SDS011;12897;50.812;4.430;2024-02-28T09:16:28;29.90;;;10.03;;
24799;SDS011;12897;50.812;4.430;2024-02-28T09:18:56;30.52;;;10.20;;
24799;SDS011;12897;50.812;4.430;2024-02-28T09:21:24;30.12;;;10.25;;
24799;SDS011;12897;50.812;4.430;2024-02-28T09:23:55;27.30;;;10.05;;
24799;SDS011;12897;50.812;4.430;2024-02-28T09:26:24;33.28;;;10.35;;
24799;SDS011;12897;50.812;4.430;2024-02-28T09:28:53;26.68;;;10.03;;
24799;SDS011;12897;50.812;4.430;2024-02-28T09:31:23;26.35;;;10.30;;
24799;SDS011;12897;50.812;4.430;2024-02-28T09:33:51;30.48;;;9.48;;
24799;SDS011;12897;50.812;4.430;2024-02-28T09:36:23;26.73;;;10.03;;
24799;SDS011;12897;50.812;4.430;2024-02-28T09:38:50;27.70;;;9.60;;
24799;SDS011;12897;50.812;4.430;2024-02-28T09:41:25;27.45;;;9.13;;
24799;SDS011;12897;50.812;4.430;2024-02-28T09:43:54;22.05;;;9.13;;
24799;SDS011;12897;50.812;4.430;2024-02-28T09:46:24;26.07;;;9.03;;
24799;SDS011;12897;50.812;4.430;2024-02-28T09:48:52;27.58;;;9.73;;
24799;SDS011;12897;50.812;4.430;2024-02-28T09:51:23;31.07;;;9.23;;
24799;SDS011;12897;50.812;4.430;2024-02-28T09:53:53;35.28;;;9.15;;
24799;SDS011;12897;50.812;4.430;2024-02-28T09:56:20;22.70;;;8.68;;
24799;SDS011;12897;50.812;4.430;2024-02-28T09:58:49;25.08;;;7.80;;
24799;SDS011;12897;50.812;4.430;2024-02-28T10:01:18;27.85;;;9.15;;
24799;SDS011;12897;50.812;4.430;2024-02-28T10:03:49;31.15;;;8.50;;
24799;SDS011;12897;50.812;4.430;2024-02-28T10:06:20;23.45;;;9.35;;
24799;SDS011;12897;50.812;4.430;2024-02-28T10:08:48;24.27;;;7.95;;
24799;SDS011;12897;50.812;4.430;2024-02-28T10:11:19;21.10;;;8.75;;
24799;SDS011;12897;50.812;4.430;2024-02-28T10:13:52;24.32;;;8.78;;
24799;SDS011;12897;50.812;4.430;2024-02-28T10:21:35;20.52;;;7.92;;
24799;SDS011;12897;50.812;4.430;2024-02-28T10:24:04;28.20;;;8.35;;
24799;SDS011;12897;50.812;4.430;2024-02-28T10:26:32;21.02;;;7.40;;
24799;SDS011;12897;50.812;4.430;2024-02-28T10:29:01;21.53;;;7.33;;
24799;SDS011;12897;50.812;4.430;2024-02-28T10:34:18;19.62;;;8.03;;
24799;SDS011;12897;50.812;4.430;2024-02-28T10:36:45;22.82;;;8.13;;
24799;SDS011;12897;50.812;4.430;2024-02-28T10:39:13;18.27;;;8.20;;
24799;SDS011;12897;50.812;4.430;2024-02-28T10:41:41;22.05;;;7.72;;
24799;SDS011;12897;50.812;4.430;2024-02-28T10:44:11;17.32;;;8.20;;
24799;SDS011;12897;50.812;4.430;2024-02-28T10:46:40;20.68;;;8.18;;
24799;SDS011;12897;50.812;4.430;2024-02-28T10:49:08;18.73;;;7.75;;
24799;SDS011;12897;50.812;4.430;2024-02-28T10:51:36;22.62;;;7.80;;
24799;SDS011;12897;50.812;4.430;2024-02-28T10:54:10;17.65;;;6.70;;
24799;SDS011;12897;50.812;4.430;2024-02-28T10:56:40;20.62;;;6.90;;
24799;SDS011;12897;50.812;4.430;2024-02-28T10:59:11;18.07;;;8.00;;
24799;SDS011;12897;50.812;4.430;2024-02-28T11:01:40;16.70;;;6.50;;
24799;SDS011;12897;50.812;4.430;2024-02-28T11:07:00;16.97;;;6.28;;
24799;SDS011;12897;50.812;4.430;2024-02-28T11:09:21;17.87;;;6.33;;
24799;SDS011;12897;50.812;4.430;2024-02-28T11:11:51;15.45;;;6.00;;
24799;SDS011;12897;50.812;4.430;2024-02-28T11:14:20;11.80;;;5.67;;
24799;SDS011;12897;50.812;4.430;2024-02-28T11:17:05;12.05;;;5.62;;
24799;SDS011;12897;50.812;4.430;2024-02-28T11:19:30;14.70;;;5.70;;
24799;SDS011;12897;50.812;4.430;2024-02-28T11:21:59;14.87;;;5.37;;
24799;SDS011;12897;50.812;4.430;2024-02-28T11:24:30;15.55;;;5.75;;
24799;SDS011;12897;50.812;4.430;2024-02-28T11:27:00;11.38;;;5.28;;
24799;SDS011;12897;50.812;4.430;2024-02-28T11:29:28;13.80;;;5.83;;
24799;SDS011;12897;50.812;4.430;2024-02-28T11:31:56;10.65;;;4.85;;
24799;SDS011;12897;50.812;4.430;2024-02-28T11:34:24;10.15;;;4.47;;
24799;SDS011;12897;50.812;4.430;2024-02-28T11:36:52;9.20;;;4.50;;
24799;SDS011;12897;50.812;4.430;2024-02-28T11:39:22;17.65;;;5.30;;
24799;SDS011;12897;50.812;4.430;2024-02-28T11:41:51;11.97;;;5.05;;
24799;SDS011;12897;50.812;4.430;2024-02-28T11:44:19;12.88;;;4.08;;
24799;SDS011;12897;50.812;4.430;2024-02-28T11:46:47;8.05;;;4.50;;
24799;SDS011;12897;50.812;4.430;2024-02-28T11:49:16;7.85;;;4.20;;
24799;SDS011;12897;50.812;4.430;2024-02-28T11:51:44;6.53;;;4.00;;
24799;SDS011;12897;50.812;4.430;2024-02-28T11:54:12;10.98;;;4.42;;
24799;SDS011;12897;50.812;4.430;2024-02-28T11:56:40;8.33;;;4.17;;
24799;SDS011;12897;50.812;4.430;2024-02-28T11:59:08;6.83;;;4.12;;
24799;SDS011;12897;50.812;4.430;2024-02-28T12:01:40;13.55;;;4.72;;
24799;SDS011;12897;50.812;4.430;2024-02-28T12:04:13;11.70;;;4.50;;
24799;SDS011;12897;50.812;4.430;2024-02-28T12:06:41;10.32;;;4.65;;
24799;SDS011;12897;50.812;4.430;2024-02-28T12:09:11;8.35;;;4.12;;
24799;SDS011;12897;50.812;4.430;2024-02-28T12:11:40;10.95;;;4.40;;
24799;SDS011;12897;50.812;4.430;2024-02-28T12:14:08;8.28;;;4.28;;
24799;SDS011;12897;50.812;4.430;2024-02-28T12:16:36;7.55;;;4.20;;
24799;SDS011;12897;50.812;4.430;2024-02-28T12:19:09;9.08;;;3.70;;
24799;SDS011;12897;50.812;4.430;2024-02-28T12:21:37;8.45;;;3.75;;
24799;SDS011;12897;50.812;4.430;2024-02-28T12:24:09;8.48;;;4.03;;
24799;SDS011;12897;50.812;4.430;2024-02-28T12:26:37;8.53;;;4.03;;
24799;SDS011;12897;50.812;4.430;2024-02-28T12:29:05;8.38;;;4.05;;
24799;SDS011;12897;50.812;4.430;2024-02-28T12:31:33;7.58;;;3.98;;
24799;SDS011;12897;50.812;4.430;2024-02-28T12:34:00;9.03;;;4.15;;
24799;SDS011;12897;50.812;4.430;2024-02-28T12:36:29;7.37;;;3.47;;
24799;SDS011;12897;50.812;4.430;2024-02-28T12:38:58;9.90;;;3.20;;
24799;SDS011;12897;50.812;4.430;2024-02-28T12:41:26;7.35;;;3.47;;
24799;SDS011;12897;50.812;4.430;2024-02-28T12:43:54;8.08;;;4.33;;
24799;SDS011;12897;50.812;4.430;2024-02-28T12:46:21;10.93;;;4.28;;
24799;SDS011;12897;50.812;4.430;2024-02-28T12:48:49;10.32;;;3.80;;
24799;SDS011;12897;50.812;4.430;2024-02-28T12:54:04;8.28;;;3.80;;
24799;SDS011;12897;50.812;4.430;2024-02-28T12:56:32;10.30;;;3.47;;
24799;SDS011;12897;50.812;4.430;2024-02-28T12:59:00;7.08;;;3.58;;
24799;SDS011;12897;50.812;4.430;2024-02-28T13:01:28;10.70;;;3.80;;
24799;SDS011;12897;50.812;4.430;2024-02-28T13:03:56;12.00;;;4.25;;
24799;SDS011;12897;50.812;4.430;2024-02-28T13:06:24;5.90;;;3.08;;
24799;SDS011;12897;50.812;4.430;2024-02-28T13:08:51;7.65;;;3.85;;
24799;SDS011;12897;50.812;4.430;2024-02-28T13:11:19;11.55;;;3.22;;
24799;SDS011;12897;50.812;4.430;2024-02-28T13:13:49;8.93;;;3.83;;
24799;SDS011;12897;50.812;4.430;2024-02-28T13:16:17;5.65;;;3.08;;
24799;SDS011;12897;50.812;4.430;2024-02-28T13:21:14;6.17;;;2.80;;
24799;SDS011;12897;50.812;4.430;2024-02-28T13:23:42;6.53;;;3.20;;
24799;SDS011;12897;50.812;4.430;2024-02-28T13:26:09;5.65;;;3.20;;
24799;SDS011;12897;50.812;4.430;2024-02-28T13:28:38;7.50;;;4.00;;
24799;SDS011;12897;50.812;4.430;2024-02-28T13:31:06;9.10;;;3.50;;
24799;SDS011;12897;50.812;4.430;2024-02-28T13:33:35;11.55;;;3.22;;
24799;SDS011;12897;50.812;4.430;2024-02-28T13:36:03;6.08;;;3.27;;
24799;SDS011;12897;50.812;4.430;2024-02-28T13:38:31;8.68;;;3.40;;
24799;SDS011;12897;50.812;4.430;2024-02-28T13:40:59;5.62;;;2.98;;
24799;SDS011;12897;50.812;4.430;2024-02-28T13:43:27;7.25;;;3.25;;
24799;SDS011;12897;50.812;4.430;2024-02-28T13:45:55;8.65;;;3.67;;
24799;SDS011;12897;50.812;4.430;2024-02-28T13:48:24;5.70;;;3.30;;
24799;SDS011;12897;50.812;4.430;2024-02-28T13:50:53;6.15;;;3.47;;
24799;SDS011;12897;50.812;4.430;2024-02-28T13:53:20;8.85;;;3.60;;
24799;SDS011;12897;50.812;4.430;2024-02-28T13:55:48;6.33;;;3.17;;
24799;SDS011;12897;50.812;4.430;2024-02-28T13:58:15;5.92;;;3.35;;
24799;SDS011;12897;50.812;4.430;2024-02-28T14:00:44;5.05;;;2.98;;
24799;SDS011;12897;50.812;4.430;2024-02-28T14:03:13;3.90;;;2.65;;
24799;SDS011;12897;50.812;4.430;2024-02-28T14:05:41;5.75;;;3.10;;
24799;SDS011;12897;50.812;4.430;2024-02-28T14:08:09;5.83;;;2.85;;
24799;SDS011;12897;50.812;4.430;2024-02-28T14:10:38;5.55;;;3.25;;
24799;SDS011;12897;50.812;4.430;2024-02-28T14:13:05;7.25;;;3.20;;
24799;SDS011;12897;50.812;4.430;2024-02-28T14:15:33;8.80;;;3.40;;
24799;SDS011;12897;50.812;4.430;2024-02-28T14:18:02;5.60;;;2.72;;
24799;SDS011;12897;50.812;4.430;2024-02-28T14:20:30;6.40;;;3.42;;
24799;SDS011;12897;50.812;4.430;2024-02-28T14:22:57;9.98;;;4.33;;
24799;SDS011;12897;50.812;4.430;2024-02-28T14:25:25;9.68;;;3.75;;
24799;SDS011;12897;50.812;4.430;2024-02-28T14:27:53;7.85;;;3.80;;
24799;SDS011;12897;50.812;4.430;2024-02-28T14:30:21;7.37;;;3.25;;
24799;SDS011;12897;50.812;4.430;2024-02-28T14:32:50;8.58;;;3.22;;
24799;SDS011;12897;50.812;4.430;2024-02-28T14:35:17;6.30;;;3.40;;
24799;SDS011;12897;50.812;4.430;2024-02-28T14:37:45;5.30;;;3.27;;
24799;SDS011;12897;50.812;4.430;2024-02-28T14:40:13;6.70;;;3.00;;
24799;SDS011;12897;50.812;4.430;2024-02-28T14:42:41;4.42;;;2.80;;
24799;SDS011;12897;50.812;4.430;2024-02-28T14:47:40;6.12;;;3.20;;
24799;SDS011;12897;50.812;4.430;2024-02-28T14:50:09;4.40;;;2.50;;
24799;SDS011;12897;50.812;4.430;2024-02-28T14:52:37;4.62;;;2.90;;
24799;SDS011;12897;50.812;4.430;2024-02-28T14:55:05;16.27;;;3.05;;
24799;SDS011;12897;50.812;4.430;2024-02-28T14:57:37;4.53;;;2.25;;
24799;SDS011;12897;50.812;4.430;2024-02-28T15:00:11;6.25;;;2.80;;
24799;SDS011;12897;50.812;4.430;2024-02-28T15:02:42;7.00;;;2.67;;
24799;SDS011;12897;50.812;4.430;2024-02-28T15:05:11;7.28;;;3.12;;
24799;SDS011;12897;50.812;4.430;2024-02-28T15:07:39;6.45;;;3.17;;
24799;SDS011;12897;50.812;4.430;2024-02-28T15:10:07;6.92;;;3.12;;